createdAt,value
2022-09-01T00:00:14.055Z,9.73
2022-09-01T00:02:43.208Z,11.63
2022-09-01T00:05:12.768Z,9.13
2022-09-01T00:07:41.987Z,7.63
2022-09-01T00:10:10.784Z,10.33
2022-09-01T00:12:39.994Z,8.70
2022-09-01T00:15:09.969Z,8.80
2022-09-01T00:17:38.116Z,9.20
2022-09-01T00:20:07.348Z,8.47
2022-09-01T00:22:35.186Z,8.17
2022-09-01T00:25:05.918Z,8.10
2022-09-01T00:27:33.773Z,10.30
2022-09-01T00:30:01.973Z,9.87
2022-09-01T00:32:29.958Z,9.07
2022-09-01T00:34:57.774Z,9.27
2022-09-01T00:37:25.643Z,8.60
2022-09-01T00:39:53.466Z,10.30
2022-09-01T00:42:22.665Z,8.77
2022-09-01T00:44:50.927Z,9.07
2022-09-01T00:47:19.141Z,9.00
2022-09-01T00:49:50.298Z,13.67
2022-09-01T00:52:22.898Z,10.40
2022-09-01T00:54:54.498Z,8.80
2022-09-01T00:57:24.030Z,8.93
2022-09-01T00:59:56.120Z,9.87
2022-09-01T01:02:24.346Z,10.20
2022-09-01T01:04:52.713Z,10.00
2022-09-01T01:07:22.880Z,15.00
2022-09-01T01:09:52.244Z,8.30
2022-09-01T01:12:21.246Z,8.03
2022-09-01T01:14:51.768Z,8.33
2022-09-01T01:17:21.924Z,12.70
2022-09-01T01:20:10.177Z,8.33
2022-09-01T01:23:05.340Z,8.33
2022-09-01T01:25:37.639Z,9.50
2022-09-01T01:28:12.876Z,10.37
2022-09-01T01:30:44.329Z,7.90
2022-09-01T01:33:12.914Z,8.60
2022-09-01T01:35:42.358Z,8.40
2022-09-01T01:38:11.161Z,12.33
2022-09-01T01:40:41.415Z,8.83
2022-09-01T01:43:12.145Z,9.00
2022-09-01T01:45:40.015Z,9.40
2022-09-01T01:48:08.609Z,10.65
2022-09-01T01:50:38.234Z,8.40
2022-09-01T01:53:11.011Z,8.70
2022-09-01T01:55:41.686Z,9.70
2022-09-01T01:58:12.069Z,11.00
2022-09-01T02:00:42.812Z,8.00
2022-09-01T02:03:12.753Z,8.97
2022-09-01T02:05:41.425Z,9.97
2022-09-01T02:08:12.169Z,11.00
2022-09-01T02:10:44.724Z,10.10
2022-09-01T02:13:16.715Z,11.17
2022-09-01T02:15:46.922Z,8.60
2022-09-01T02:18:18.110Z,7.87
2022-09-01T02:20:47.649Z,8.07
2022-09-01T02:23:20.099Z,8.73
2022-09-01T02:26:14.674Z,9.10
2022-09-01T02:28:39.936Z,8.20
2022-09-01T02:31:08.989Z,10.75
2022-09-01T02:33:38.591Z,11.97
2022-09-01T02:36:09.325Z,8.87
2022-09-01T02:38:38.915Z,10.80
2022-09-01T02:41:08.183Z,9.30
2022-09-01T02:43:36.012Z,10.00
2022-09-01T02:46:06.380Z,9.10
2022-09-01T02:48:37.296Z,8.23
2022-09-01T02:51:08.358Z,11.80
2022-09-01T02:53:37.006Z,9.13
2022-09-01T02:56:09.442Z,9.13
2022-09-01T02:58:45.981Z,8.50
2022-09-01T03:01:20.485Z,13.43
2022-09-01T03:03:48.808Z,11.55
2022-09-01T03:06:19.310Z,8.80
2022-09-01T03:08:47.633Z,9.17
2022-09-01T03:11:15.592Z,8.80
2022-09-01T03:13:45.066Z,8.40
2022-09-01T03:16:13.594Z,10.32
2022-09-01T03:18:42.805Z,8.13
2022-09-01T03:21:15.024Z,11.20
2022-09-01T03:23:43.448Z,8.23
2022-09-01T03:26:11.946Z,12.70
2022-09-01T03:28:39.788Z,10.80
2022-09-01T03:31:09.589Z,10.60
2022-09-01T03:33:37.514Z,9.87
2022-09-01T03:36:14.734Z,13.63
2022-09-01T03:38:43.949Z,10.30
2022-09-01T03:41:13.125Z,12.93
2022-09-01T03:43:47.232Z,9.60
2022-09-01T03:46:21.441Z,10.32
2022-09-01T03:48:51.237Z,10.90
2022-09-01T03:51:20.937Z,8.90
2022-09-01T03:53:48.980Z,10.23
2022-09-01T03:56:16.842Z,11.03
2022-09-01T03:58:47.130Z,10.67
2022-09-01T04:01:17.130Z,12.93
2022-09-01T04:03:48.922Z,11.50
2022-09-01T04:06:23.885Z,11.70
2022-09-01T04:08:53.864Z,13.00
2022-09-01T04:11:24.396Z,10.40
2022-09-01T04:13:53.142Z,12.40
2022-09-01T04:16:42.191Z,9.48
2022-09-01T04:19:20.129Z,12.37
2022-09-01T04:21:50.345Z,9.77
2022-09-01T04:24:18.930Z,9.50
2022-09-01T04:26:49.549Z,10.88
2022-09-01T04:29:19.299Z,11.13
2022-09-01T04:31:53.473Z,12.73
2022-09-01T04:34:22.382Z,14.83
2022-09-01T04:36:54.490Z,9.87
2022-09-01T04:39:23.670Z,9.97
2022-09-01T04:41:51.554Z,10.23
2022-09-01T04:44:20.160Z,10.07
2022-09-01T04:46:50.563Z,10.50
2022-09-01T04:49:21.923Z,10.30
2022-09-01T04:51:53.662Z,12.30
2022-09-01T04:54:23.166Z,15.10
2022-09-01T04:56:52.671Z,12.13
2022-09-01T04:59:24.061Z,15.33
2022-09-01T05:01:54.845Z,9.63
2022-09-01T05:04:27.398Z,10.43
2022-09-01T05:06:59.652Z,10.57
2022-09-01T05:09:28.775Z,11.03
2022-09-01T05:11:57.932Z,12.67
2022-09-01T05:14:26.132Z,10.53
2022-09-01T05:16:59.447Z,10.03
2022-09-01T05:19:29.743Z,15.20
2022-09-01T05:21:58.216Z,12.87
2022-09-01T05:24:30.134Z,11.67
2022-09-01T05:26:58.956Z,10.25
2022-09-01T05:29:27.742Z,9.73
2022-09-01T05:31:56.330Z,11.10
2022-09-01T05:34:27.412Z,11.10
2022-09-01T05:36:58.010Z,13.20
2022-09-01T05:39:26.148Z,10.33
2022-09-01T05:41:54.659Z,9.37
2022-09-01T05:44:23.500Z,10.23
2022-09-01T05:46:53.156Z,8.83
2022-09-01T05:49:21.227Z,12.60
2022-09-01T05:51:53.120Z,11.85
2022-09-01T05:54:23.211Z,10.60
2022-09-01T05:56:53.447Z,10.40
2022-09-01T05:59:24.819Z,10.53
2022-09-01T06:01:54.706Z,10.40
2022-09-01T06:04:24.675Z,10.63
2022-09-01T06:07:05.596Z,11.10
2022-09-01T06:09:38.098Z,9.73
2022-09-01T06:12:06.594Z,11.40
2022-09-01T06:14:34.582Z,12.97
2022-09-01T06:17:03.152Z,12.93
2022-09-01T06:19:36.905Z,9.20
2022-09-01T06:22:07.310Z,11.90
2022-09-01T06:24:35.116Z,9.77
2022-09-01T06:27:03.293Z,11.60
2022-09-01T06:29:31.349Z,11.67
2022-09-01T06:32:02.270Z,12.70
2022-09-01T06:34:31.947Z,12.90
2022-09-01T06:36:59.801Z,14.20
2022-09-01T06:39:28.962Z,13.07
2022-09-01T06:41:58.149Z,14.03
2022-09-01T06:44:26.154Z,15.13
2022-09-01T06:46:54.959Z,12.17
2022-09-01T06:49:32.493Z,13.87
2022-09-01T06:52:00.794Z,12.07
2022-09-01T06:54:34.204Z,12.03
2022-09-01T06:58:03.475Z,14.23
2022-09-01T06:59:53.779Z,12.43
2022-09-01T07:02:26.411Z,14.77
2022-09-01T07:04:55.093Z,12.07
2022-09-01T07:10:21.468Z,11.80
2022-09-01T07:18:30.911Z,16.17
2022-09-01T07:21:35.520Z,12.07
2022-09-01T07:24:08.698Z,13.90
2022-09-01T07:26:46.860Z,13.10
2022-09-01T07:29:25.702Z,12.10
2022-09-01T07:34:46.545Z,12.40
2022-09-01T07:43:17.725Z,11.67
2022-09-01T07:45:58.335Z,11.20
2022-09-01T07:48:37.130Z,11.60
2022-09-01T07:51:36.100Z,13.33
2022-09-01T07:54:05.816Z,9.63
2022-09-01T07:56:39.437Z,9.43
2022-09-01T07:59:14.732Z,11.00
2022-09-01T08:01:43.788Z,10.43
2022-09-01T08:04:11.714Z,8.50
2022-09-01T08:06:39.701Z,10.68
2022-09-01T08:09:11.539Z,8.10
2022-09-01T08:12:01.019Z,8.00
2022-09-01T08:14:33.710Z,9.70
2022-09-01T08:17:16.788Z,8.93
2022-09-01T08:19:46.910Z,10.70
2022-09-01T08:22:14.992Z,8.57
2022-09-01T08:24:42.829Z,10.93
2022-09-01T08:27:10.688Z,10.40
2022-09-01T08:29:39.836Z,14.50
2022-09-01T08:32:07.736Z,14.07
2022-09-01T08:34:37.320Z,15.23
2022-09-01T08:37:05.842Z,12.73
2022-09-01T08:39:34.169Z,16.43
2022-09-01T08:42:09.724Z,17.13
2022-09-01T08:44:45.839Z,14.30
2022-09-01T08:47:27.834Z,16.70
2022-09-01T08:49:56.156Z,17.50
2022-09-01T08:52:29.237Z,16.47
2022-09-01T08:55:01.426Z,14.00
2022-09-01T08:57:34.381Z,13.83
2022-09-01T09:00:05.521Z,14.70
2022-09-01T09:02:46.168Z,13.15
2022-09-01T09:05:34.249Z,12.30
2022-09-01T09:08:33.234Z,14.17
2022-09-01T09:11:03.775Z,13.57
2022-09-01T09:13:42.468Z,13.90
2022-09-01T09:16:16.823Z,12.87
2022-09-01T09:18:56.792Z,15.73
2022-09-01T09:21:29.953Z,13.63
2022-09-01T09:24:03.705Z,13.07
2022-09-01T09:26:47.273Z,14.40
2022-09-01T09:29:15.110Z,14.43
2022-09-01T09:31:49.962Z,13.20
2022-09-01T09:34:35.044Z,12.07
2022-09-01T09:37:27.468Z,15.73
2022-09-01T09:40:10.252Z,15.80
2022-09-01T09:42:39.777Z,14.07
2022-09-01T09:45:22.038Z,13.87
2022-09-01T09:47:51.961Z,13.27
2022-09-01T09:50:25.070Z,13.10
2022-09-01T09:52:56.484Z,12.23
2022-09-01T09:55:27.603Z,13.87
2022-09-01T09:57:58.684Z,12.82
2022-09-01T10:00:29.928Z,12.90
2022-09-01T10:03:07.789Z,12.00
2022-09-01T10:05:41.720Z,10.37
2022-09-01T10:08:14.811Z,13.80
2022-09-01T10:10:45.693Z,15.70
2022-09-01T10:13:27.569Z,11.93
2022-09-01T10:15:57.270Z,13.90
2022-09-01T10:18:32.224Z,12.27
2022-09-01T10:21:02.307Z,13.00
2022-09-01T10:23:34.886Z,11.82
2022-09-01T10:26:06.720Z,13.60
2022-09-01T10:28:49.524Z,11.13
2022-09-01T10:31:18.445Z,10.13
2022-09-01T10:33:48.430Z,11.67
2022-09-01T10:36:17.993Z,9.47
2022-09-01T10:38:53.802Z,11.47
2022-09-01T10:41:53.247Z,10.33
2022-09-01T10:44:33.776Z,10.40
2022-09-01T10:47:06.195Z,8.87
2022-09-01T10:50:01.721Z,10.50
2022-09-01T10:53:00.147Z,7.67
2022-09-01T10:55:42.698Z,7.53
2022-09-01T11:05:16.874Z,8.07
2022-09-01T11:08:09.135Z,7.20
2022-09-01T11:10:56.036Z,7.47
2022-09-01T11:13:50.000Z,7.13
2022-09-01T11:16:50.104Z,6.70
2022-09-01T11:19:38.820Z,6.53
2022-09-01T11:22:26.280Z,9.03
2022-09-01T11:25:40.312Z,6.60
2022-09-01T11:28:47.214Z,7.30
2022-09-01T11:31:39.253Z,5.53
2022-09-01T11:34:13.981Z,6.30
2022-09-01T11:36:58.877Z,7.30
2022-09-01T11:39:33.783Z,7.17
2022-09-01T11:42:05.592Z,5.93
2022-09-01T11:44:39.488Z,5.93
2022-09-01T11:47:16.563Z,5.73
2022-09-01T11:49:54.067Z,7.40
2022-09-01T11:52:24.094Z,6.57
2022-09-01T11:54:52.218Z,6.33
2022-09-01T11:57:26.908Z,6.27
2022-09-01T11:59:55.431Z,5.47
2022-09-01T12:02:27.234Z,7.63
2022-09-01T12:04:56.585Z,5.57
2022-09-01T12:07:33.473Z,5.80
2022-09-01T12:10:01.492Z,6.30
2022-09-01T12:12:35.781Z,5.70
2022-09-01T12:15:07.157Z,6.50
2022-09-01T12:17:37.105Z,6.10
2022-09-01T12:20:24.387Z,5.80
2022-09-01T12:22:56.708Z,5.17
2022-09-01T12:25:26.857Z,5.30
2022-09-01T12:27:55.232Z,5.40
2022-09-01T12:30:24.403Z,5.63
2022-09-01T12:33:22.850Z,5.57
2022-09-01T12:35:43.809Z,5.37
2022-09-01T12:38:25.544Z,5.57
2022-09-01T12:40:55.119Z,6.07
2022-09-01T12:43:31.011Z,5.00
2022-09-01T12:46:02.966Z,4.68
2022-09-01T12:48:35.690Z,5.47
2022-09-01T12:51:24.538Z,5.00
2022-09-01T12:53:58.504Z,5.50
2022-09-01T12:56:31.914Z,4.47
2022-09-01T12:59:15.540Z,5.13
2022-09-01T13:01:45.650Z,5.30
2022-09-01T13:04:30.043Z,4.67
2022-09-01T13:07:03.033Z,5.07
2022-09-01T13:09:30.871Z,5.10
2022-09-01T13:12:18.895Z,4.90
2022-09-01T13:14:47.205Z,4.93
2022-09-01T13:17:15.037Z,4.97
2022-09-01T13:19:44.211Z,4.97
2022-09-01T13:22:12.089Z,4.68
2022-09-01T13:24:40.311Z,6.00
2022-09-01T13:27:23.935Z,4.18
2022-09-01T13:29:52.383Z,4.70
2022-09-01T13:32:22.366Z,4.20
2022-09-01T13:34:53.947Z,4.27
2022-09-01T13:37:22.604Z,4.67
2022-09-01T13:39:50.641Z,3.83
2022-09-01T13:42:18.887Z,4.00
2022-09-01T13:44:49.713Z,4.77
2022-09-01T13:48:14.817Z,6.10
2022-09-01T13:50:14.622Z,7.13
2022-09-01T13:52:46.743Z,3.90
2022-09-01T13:55:25.763Z,3.60
2022-09-01T13:57:55.905Z,4.30
2022-09-01T14:00:26.394Z,3.47
2022-09-01T14:02:56.444Z,3.93
2022-09-01T14:05:28.198Z,4.37
2022-09-01T14:07:56.326Z,3.70
2022-09-01T14:10:25.927Z,3.63
2022-09-01T14:12:53.910Z,3.00
2022-09-01T14:15:27.188Z,3.20
2022-09-01T14:17:57.165Z,3.40
2022-09-01T14:20:31.325Z,3.20
2022-09-01T14:23:06.463Z,3.07
2022-09-01T14:25:35.234Z,2.90
2022-09-01T14:28:03.846Z,3.13
2022-09-01T14:30:33.985Z,2.60
2022-09-01T14:33:02.688Z,3.10
2022-09-01T14:35:34.288Z,3.77
2022-09-01T14:38:05.173Z,3.67
2022-09-01T14:40:33.775Z,2.50
2022-09-01T14:43:01.678Z,2.43
2022-09-01T14:45:29.731Z,2.75
2022-09-01T14:48:00.664Z,2.67
2022-09-01T14:50:32.327Z,3.53
2022-09-01T14:53:03.199Z,2.40
2022-09-01T14:55:32.813Z,2.80
2022-09-01T14:58:01.263Z,2.97
2022-09-01T15:00:30.117Z,3.30
2022-09-01T15:02:59.145Z,2.80
2022-09-01T15:05:27.198Z,3.37
2022-09-01T15:07:55.328Z,3.08
2022-09-01T15:10:27.295Z,2.30
2022-09-01T15:12:57.656Z,3.20
2022-09-01T15:15:26.503Z,3.03
2022-09-01T15:17:54.937Z,2.83
2022-09-01T15:20:40.945Z,3.87
2022-09-01T15:23:09.208Z,3.33
2022-09-01T15:25:38.643Z,3.23
2022-09-01T15:28:06.756Z,4.00
2022-09-01T15:30:35.245Z,2.83
2022-09-01T15:33:03.284Z,2.70
2022-09-01T15:35:32.098Z,3.10
2022-09-01T15:38:00.169Z,4.50
2022-09-01T15:40:28.566Z,2.90
2022-09-01T15:42:59.953Z,2.77
2022-09-01T15:45:29.914Z,3.60
2022-09-01T15:47:57.804Z,3.93
2022-09-01T15:50:27.532Z,3.05
2022-09-01T15:52:58.520Z,3.20
2022-09-01T15:55:29.506Z,3.03
2022-09-01T15:57:59.162Z,3.83
2022-09-01T16:00:28.378Z,3.30
2022-09-01T16:03:01.499Z,3.70
2022-09-01T16:05:29.654Z,3.17
2022-09-01T16:07:57.583Z,3.33
2022-09-01T16:10:25.588Z,3.17
2022-09-01T16:12:53.414Z,3.40
2022-09-01T16:15:25.535Z,3.00
2022-09-01T16:18:16.869Z,3.20
2022-09-01T16:20:55.759Z,4.07
2022-09-01T16:23:26.383Z,3.33
2022-09-01T16:25:54.731Z,3.40
2022-09-01T16:28:27.601Z,3.13
2022-09-01T16:31:03.697Z,3.40
2022-09-01T16:33:33.868Z,4.50
2022-09-01T16:36:17.683Z,3.03
2022-09-01T16:38:50.444Z,3.55
2022-09-01T16:41:39.644Z,2.67
2022-09-01T16:44:25.383Z,3.43
2022-09-01T16:47:01.879Z,4.77
2022-09-01T16:49:35.542Z,3.20
2022-09-01T16:52:08.179Z,3.50
2022-09-01T16:54:46.769Z,3.67
2022-09-01T16:57:23.397Z,4.00
2022-09-01T16:59:55.690Z,4.23
2022-09-01T17:02:38.732Z,2.77
2022-09-01T17:05:19.422Z,3.33
2022-09-01T17:07:53.897Z,3.00
2022-09-01T17:10:34.685Z,3.43
2022-09-01T17:13:22.641Z,3.13
2022-09-01T17:15:58.646Z,3.40
2022-09-01T17:18:38.786Z,2.83
2022-09-01T17:21:14.066Z,3.60
2022-09-01T17:23:50.704Z,3.60
2022-09-01T17:26:24.206Z,3.13
2022-09-01T17:28:56.311Z,3.47
2022-09-01T17:31:42.906Z,3.43
2022-09-01T17:34:30.992Z,4.20
2022-09-01T17:37:14.388Z,3.77
2022-09-01T17:39:53.187Z,3.73
2022-09-01T17:42:30.412Z,3.50
2022-09-01T17:45:07.384Z,3.50
2022-09-01T17:47:41.252Z,3.57
2022-09-01T17:50:19.073Z,3.90
2022-09-01T17:52:58.670Z,3.50
2022-09-01T17:55:43.116Z,3.57
2022-09-01T17:58:20.700Z,3.53
2022-09-01T18:00:57.879Z,3.40
2022-09-01T18:03:44.058Z,3.03
2022-09-01T18:06:22.658Z,3.70
2022-09-01T18:08:54.088Z,3.87
2022-09-01T18:11:27.775Z,3.90
2022-09-01T18:14:00.600Z,5.43
2022-09-01T18:16:31.846Z,3.97
2022-09-01T18:19:05.698Z,4.10
2022-09-01T18:21:38.151Z,3.83
2022-09-01T18:24:15.036Z,3.90
2022-09-01T18:26:47.169Z,4.37
2022-09-01T18:29:15.007Z,4.53
2022-09-01T18:32:08.980Z,3.83
2022-09-01T18:35:01.350Z,4.00
2022-09-01T18:37:37.190Z,3.87
2022-09-01T18:40:13.982Z,4.43
2022-09-01T18:42:49.102Z,4.50
2022-09-01T18:45:26.339Z,4.30
2022-09-01T18:48:01.378Z,4.23
2022-09-01T18:50:32.629Z,5.10
2022-09-01T18:53:25.306Z,4.30
2022-09-01T18:55:58.447Z,5.97
2022-09-01T18:58:45.458Z,4.77
2022-09-01T19:01:17.169Z,4.50
2022-09-01T19:03:49.473Z,4.30
2022-09-01T19:06:30.350Z,4.80
2022-09-01T19:09:14.348Z,5.80
2022-09-01T19:12:00.738Z,4.90
2022-09-01T19:14:37.214Z,5.40
2022-09-01T19:17:30.457Z,5.47
2022-09-01T19:20:03.055Z,4.83
2022-09-01T19:22:40.303Z,4.50
2022-09-01T19:25:30.673Z,4.30
2022-09-01T19:28:02.957Z,6.43
2022-09-01T19:30:35.454Z,4.45
2022-09-01T19:33:06.340Z,4.27
2022-09-01T19:35:36.671Z,4.77
2022-09-01T19:38:06.831Z,4.77
2022-09-01T19:40:40.475Z,5.47
2022-09-01T19:43:13.498Z,4.57
2022-09-01T19:45:48.765Z,5.85
2022-09-01T19:48:21.737Z,4.87
2022-09-01T19:50:55.764Z,4.75
2022-09-01T19:53:37.757Z,4.80
2022-09-01T19:56:10.304Z,4.73
2022-09-01T19:58:51.542Z,5.13
2022-09-01T20:01:26.642Z,6.10
2022-09-01T20:04:01.753Z,5.10
2022-09-01T20:06:34.781Z,7.80
2022-09-01T20:09:12.853Z,5.20
2022-09-01T20:11:50.274Z,5.10
2022-09-01T20:14:37.733Z,5.50
2022-09-01T20:17:08.724Z,5.70
2022-09-01T20:19:42.629Z,4.80
2022-09-01T20:22:22.166Z,7.32
2022-09-01T20:24:49.990Z,5.27
2022-09-01T20:27:33.933Z,6.57
2022-09-01T20:30:04.903Z,4.67
2022-09-01T20:32:39.113Z,5.07
2022-09-01T20:35:12.374Z,5.53
2022-09-01T20:37:44.136Z,4.93
2022-09-01T20:40:15.644Z,5.30
2022-09-01T20:42:51.803Z,7.53
2022-09-01T20:45:21.826Z,4.97
2022-09-01T20:47:54.907Z,4.73
2022-09-01T20:50:32.536Z,5.00
2022-09-01T20:53:16.315Z,5.50
2022-09-01T20:55:50.554Z,5.47
2022-09-01T20:58:31.058Z,4.77
2022-09-01T21:01:13.142Z,4.60
2022-09-01T21:03:54.645Z,4.90
2022-09-01T21:06:31.470Z,5.50
2022-09-01T21:09:10.461Z,6.03
2022-09-01T21:11:43.065Z,6.03
2022-09-01T21:14:33.781Z,6.10
2022-09-01T21:17:10.548Z,6.13
2022-09-01T21:19:49.882Z,5.43
2022-09-01T21:22:22.126Z,5.70
2022-09-01T21:24:51.047Z,6.30
2022-09-01T21:27:22.624Z,5.87
2022-09-01T21:30:03.833Z,5.20
2022-09-01T21:32:33.606Z,5.30
2022-09-01T21:35:01.899Z,4.80
2022-09-01T21:37:30.591Z,5.10
2022-09-01T21:39:58.703Z,4.83
2022-09-01T21:42:28.914Z,5.33
2022-09-01T21:44:58.277Z,5.10
2022-09-01T21:47:28.505Z,5.23
2022-09-01T21:49:56.590Z,5.47
2022-09-01T21:52:24.605Z,5.90
2022-09-01T21:54:52.614Z,7.20
2022-09-01T21:57:22.523Z,5.85
2022-09-01T21:59:51.317Z,5.30
2022-09-01T22:02:20.068Z,5.57
2022-09-01T22:04:49.798Z,4.90
2022-09-01T22:07:18.642Z,5.23
2022-09-01T22:09:46.957Z,4.97
2022-09-01T22:12:14.952Z,4.73
2022-09-01T22:14:42.842Z,5.40
2022-09-01T22:17:10.963Z,4.97
2022-09-01T22:19:38.821Z,4.53
2022-09-01T22:22:08.124Z,6.30
2022-09-01T22:24:35.979Z,5.47
2022-09-01T22:27:03.901Z,5.07
2022-09-01T22:29:31.741Z,5.00
2022-09-01T22:32:00.195Z,4.53
2022-09-01T22:34:28.024Z,4.67
2022-09-01T22:36:55.871Z,6.70
2022-09-01T22:39:25.760Z,5.82
2022-09-01T22:41:54.908Z,5.00
2022-09-01T22:44:22.932Z,5.63
2022-09-01T22:46:50.887Z,4.97
2022-09-01T22:49:18.939Z,5.47
2022-09-01T22:51:46.864Z,5.10
2022-09-01T22:54:14.805Z,4.77
2022-09-01T22:56:45.127Z,6.30
2022-09-01T22:59:14.798Z,5.10
2022-09-01T23:01:47.581Z,5.73
2022-09-01T23:04:17.119Z,4.65
2022-09-01T23:06:47.535Z,5.57
2022-09-01T23:09:15.728Z,5.27
2022-09-01T23:11:45.421Z,5.00
2022-09-01T23:14:13.421Z,4.78
2022-09-01T23:16:41.687Z,4.40
2022-09-01T23:19:09.617Z,4.80
2022-09-01T23:21:38.881Z,4.80
2022-09-01T23:24:07.584Z,4.80
2022-09-01T23:26:36.081Z,5.00
2022-09-01T23:29:06.270Z,4.10
2022-09-01T23:31:36.742Z,5.53
2022-09-01T23:34:05.921Z,5.33
2022-09-01T23:36:34.239Z,5.33
2022-09-01T23:39:02.547Z,5.13
2022-09-01T23:41:32.433Z,4.37
2022-09-01T23:44:02.822Z,7.93
2022-09-01T23:46:33.898Z,4.70
2022-09-01T23:49:02.552Z,4.97
2022-09-01T23:51:30.405Z,5.60
2022-09-01T23:53:58.792Z,4.97
2022-09-01T23:56:28.770Z,5.32
2022-09-01T23:58:56.786Z,4.90
